Time;durP1;ratioP1;P1;durP2;ratioP2;P2;SDS_P1;SDS_P2;PMS_P1;PMS_P2;Temp;Humidity;BMP_temperature;BMP_pressure;BME280_temperature;BME280_humidity;BME280_pressure;Samples;Min_cycle;Max_cycle;Signal;HPM_P1;HPM_P2
2022/05/13 00:01:56;;;;;;;9.40;8.40;;;17.50;99.90;;;;;;5091579;28;20817;-64
2022/05/13 00:04:23;;;;;;;11.43;8.20;;;17.50;99.90;;;;;;5091788;28;20442;-64
2022/05/13 00:06:50;;;;;;;9.70;7.50;;;17.50;99.90;;;;;;5091855;28;20446;-64
2022/05/13 00:09:16;;;;;;;11.03;8.80;;;17.40;99.90;;;;;;5091496;28;20466;-64
2022/05/13 00:11:43;;;;;;;9.53;8.63;;;17.50;99.90;;;;;;5091284;28;20900;-63
2022/05/13 00:14:11;;;;;;;10.80;8.70;;;17.40;99.90;;;;;;5091621;28;20454;-62
2022/05/13 00:16:38;;;;;;;9.90;8.93;;;17.40;99.90;;;;;;5091341;28;21000;-64
2022/05/13 00:19:08;;;;;;;9.37;8.30;;;17.40;99.90;;;;;;5091231;28;20477;-64
2022/05/13 00:21:35;;;;;;;10.10;9.10;;;17.40;99.90;;;;;;5091088;28;20454;-65
2022/05/13 00:24:02;;;;;;;9.10;8.00;;;17.50;99.90;;;;;;5091220;28;20442;-64
2022/05/13 00:26:29;;;;;;;8.97;8.03;;;17.50;99.90;;;;;;5091124;28;20458;-64
2022/05/13 00:28:56;;;;;;;7.90;7.10;;;17.50;99.90;;;;;;5091209;28;20462;-64
2022/05/13 00:31:24;;;;;;;8.83;7.87;;;17.50;99.90;;;;;;5091015;28;20823;-64
2022/05/13 00:33:51;;;;;;;8.70;7.60;;;17.50;99.90;;;;;;5091173;28;20958;-64
2022/05/13 00:36:19;;;;;;;9.07;7.90;;;17.50;99.90;;;;;;5091069;28;20571;-64
2022/05/13 00:38:47;;;;;;;9.27;8.23;;;17.50;99.90;;;;;;5090752;28;20462;-64
2022/05/13 00:41:14;;;;;;;9.77;8.10;;;17.50;99.90;;;;;;5090867;28;21091;-64
2022/05/13 00:43:47;;;;;;;9.73;8.40;;;17.50;99.90;;;;;;5089541;28;20452;-59
2022/05/13 00:46:15;;;;;;;9.07;8.17;;;17.50;99.90;;;;;;5090757;28;20438;-65
2022/05/13 00:48:41;;;;;;;10.13;8.87;;;17.60;99.90;;;;;;5085211;28;20544;-64
2022/05/13 00:51:10;;;;;;;10.73;8.60;;;17.60;99.90;;;;;;5090379;28;20457;-64
2022/05/13 00:53:38;;;;;;;9.07;8.17;;;17.60;99.90;;;;;;5090064;28;20454;-64
2022/05/13 00:56:06;;;;;;;9.63;7.97;;;17.50;99.90;;;;;;5090490;28;20482;-64
2022/05/13 00:58:36;;;;;;;8.77;7.87;;;17.60;99.90;;;;;;5090857;28;20462;-64
2022/05/13 01:01:03;;;;;;;8.67;7.77;;;17.60;99.90;;;;;;5090166;28;20953;-65
2022/05/13 01:03:31;;;;;;;9.43;7.90;;;17.60;99.90;;;;;;5090382;28;20446;-65
2022/05/13 01:06:01;;;;;;;8.87;7.37;;;17.60;99.90;;;;;;5090303;28;20521;-64
2022/05/13 01:08:31;;;;;;;8.33;7.53;;;17.60;99.90;;;;;;5090324;28;20470;-64
2022/05/13 01:11:02;;;;;;;9.60;7.33;;;17.60;99.90;;;;;;5089715;28;20481;-65
2022/05/13 01:13:30;;;;;;;7.80;7.00;;;17.50;99.90;;;;;;5090482;28;20453;-64
2022/05/13 01:15:57;;;;;;;9.03;8.13;;;17.50;99.90;;;;;;5090170;28;20478;-64
2022/05/13 01:18:26;;;;;;;8.13;7.33;;;17.50;99.90;;;;;;5090161;28;20485;-65
2022/05/13 01:20:53;;;;;;;8.90;8.00;;;17.50;99.90;;;;;;5089990;28;20442;-64
2022/05/13 01:23:24;;;;;;;9.30;8.40;;;17.40;99.90;;;;;;5090142;28;20515;-64
2022/05/13 01:25:53;;;;;;;10.30;9.30;;;17.40;99.90;;;;;;5090272;28;20482;-64
2022/05/13 01:28:23;;;;;;;9.50;8.60;;;17.20;99.90;;;;;;5090076;28;20470;-64
2022/05/13 01:30:52;;;;;;;11.10;9.60;;;17.10;99.90;;;;;;5089769;28;20450;-64
2022/05/13 01:33:20;;;;;;;10.50;8.60;;;17.00;99.90;;;;;;5089903;28;20458;-65
2022/05/13 01:35:49;;;;;;;10.20;9.20;;;16.80;99.90;;;;;;5090105;28;20447;-64
2022/05/13 01:38:18;;;;;;;10.23;9.23;;;16.80;99.90;;;;;;5089881;28;20468;-63
2022/05/13 01:40:46;;;;;;;10.17;9.17;;;16.80;99.90;;;;;;5089733;28;20445;-66
2022/05/13 01:43:13;;;;;;;10.50;8.23;;;16.70;99.90;;;;;;5089987;28;20444;-65
2022/05/13 01:45:40;;;;;;;11.37;9.67;;;16.70;99.90;;;;;;5089814;28;20445;-64
2022/05/13 01:48:08;;;;;;;15.60;11.50;;;16.70;99.90;;;;;;5089598;28;21008;-65
2022/05/13 01:50:36;;;;;;;12.03;10.70;;;16.80;99.90;;;;;;5089571;28;20469;-65
2022/05/13 01:53:03;;;;;;;14.30;10.40;;;16.80;99.90;;;;;;5089878;28;20530;-65
2022/05/13 01:55:30;;;;;;;10.40;9.40;;;16.80;99.90;;;;;;5089818;28;20454;-65
2022/05/13 01:57:58;;;;;;;10.50;9.50;;;16.80;99.90;;;;;;5089307;28;21047;-65
2022/05/13 02:00:26;;;;;;;11.03;9.93;;;16.70;99.90;;;;;;5089587;28;20442;-65
2022/05/13 02:05:38;;;;;;;10.60;9.53;;;16.70;99.90;;;;;;5089748;28;20476;-64
2022/05/13 02:08:06;;;;;;;13.20;10.20;;;16.60;99.90;;;;;;5089514;28;20969;-64
2022/05/13 02:10:34;;;;;;;10.70;9.43;;;16.60;99.90;;;;;;5089322;28;20446;-66
2022/05/13 02:13:02;;;;;;;9.93;8.93;;;16.60;99.90;;;;;;5089926;28;20473;-64
2022/05/13 02:15:29;;;;;;;9.70;8.70;;;16.50;99.90;;;;;;5089796;28;20446;-64
2022/05/13 02:17:56;;;;;;;10.83;9.47;;;16.50;99.90;;;;;;5089711;28;20486;-65
2022/05/13 02:20:23;;;;;;;14.30;11.73;;;16.50;99.90;;;;;;5090373;28;20446;-64
2022/05/13 02:22:50;;;;;;;12.10;10.73;;;16.50;99.90;;;;;;5093944;28;20446;-65
2022/05/13 02:25:17;;;;;;;11.70;10.13;;;16.60;99.90;;;;;;5093600;28;20457;-64
2022/05/13 02:27:43;;;;;;;19.07;10.00;;;16.50;99.90;;;;;;5093946;28;20466;-64
2022/05/13 02:30:13;;;;;;;12.90;9.10;;;16.40;99.90;;;;;;5093411;28;20819;-64
2022/05/13 02:32:40;;;;;;;13.03;10.03;;;16.30;99.90;;;;;;5093657;28;20453;-63
2022/05/13 02:35:08;;;;;;;11.93;9.23;;;16.20;99.90;;;;;;5093458;28;20446;-64
2022/05/13 02:37:35;;;;;;;11.20;9.10;;;16.20;99.90;;;;;;5093184;28;20481;-64
2022/05/13 02:40:02;;;;;;;12.00;9.60;;;16.20;99.90;;;;;;5093165;28;20457;-64
2022/05/13 02:42:29;;;;;;;11.00;9.90;;;16.10;99.90;;;;;;5091913;28;20450;-64
2022/05/13 02:44:55;;;;;;;12.23;9.73;;;16.10;99.90;;;;;;5086592;28;20446;-64
2022/05/13 02:47:24;;;;;;;13.23;10.83;;;16.10;99.90;;;;;;5090681;28;20805;-65
2022/05/13 02:50:17;;;;;;;11.77;10.57;;;16.10;99.90;;;;;;5092750;28;20441;-64
2022/05/13 02:52:38;;;;;;;10.73;9.07;;;16.10;99.90;;;;;;5092855;28;20474;-65
2022/05/13 02:55:06;;;;;;;11.20;9.10;;;16.10;99.90;;;;;;5092967;28;20992;-65
2022/05/13 02:57:33;;;;;;;9.77;8.80;;;16.10;99.90;;;;;;5092919;28;20477;-65
2022/05/13 03:00:00;;;;;;;14.90;10.00;;;16.10;99.90;;;;;;5092763;28;20446;-62
2022/05/13 03:02:28;;;;;;;15.27;10.23;;;16.10;99.90;;;;;;5092792;28;20783;-65
2022/05/13 03:04:55;;;;;;;12.13;10.30;;;16.00;99.90;;;;;;5092962;28;20449;-65
2022/05/13 03:07:22;;;;;;;11.60;9.37;;;16.10;99.90;;;;;;5092775;28;20449;-64
2022/05/13 03:09:49;;;;;;;14.77;9.90;;;16.10;99.90;;;;;;5092569;28;20465;-65
2022/05/13 03:12:16;;;;;;;12.03;10.70;;;16.10;99.90;;;;;;5092503;28;20441;-64
2022/05/13 03:14:43;;;;;;;13.07;10.30;;;16.10;99.90;;;;;;5092691;28;20536;-63
2022/05/13 03:17:10;;;;;;;11.53;10.00;;;16.10;99.90;;;;;;5092213;28;20481;-65
2022/05/13 03:19:39;;;;;;;10.77;9.67;;;16.10;99.90;;;;;;5092356;28;20485;-64
2022/05/13 03:22:06;;;;;;;12.00;9.40;;;16.10;99.90;;;;;;5092327;28;20446;-64
2022/05/13 03:24:33;;;;;;;12.93;10.60;;;16.10;99.90;;;;;;5092544;28;20465;-64
2022/05/13 03:27:00;;;;;;;14.87;11.17;;;16.10;99.90;;;;;;5092283;28;20458;-65
2022/05/13 03:29:27;;;;;;;14.30;10.50;;;16.20;99.90;;;;;;5092286;28;20466;-64
2022/05/13 03:31:55;;;;;;;9.93;8.93;;;16.20;99.90;;;;;;5091065;28;20458;-65
2022/05/13 03:34:22;;;;;;;11.10;9.43;;;16.20;99.90;;;;;;5092360;28;20449;-65
2022/05/13 03:36:50;;;;;;;10.93;9.33;;;16.20;99.90;;;;;;5092189;28;20482;-66
2022/05/13 03:39:17;;;;;;;12.43;9.73;;;16.20;99.90;;;;;;5092027;28;20972;-63
2022/05/13 03:41:44;;;;;;;14.33;9.10;;;16.10;99.90;;;;;;5091905;28;20442;-64
2022/05/13 03:44:11;;;;;;;13.83;8.97;;;16.10;99.90;;;;;;5091894;28;20450;-65
2022/05/13 03:46:38;;;;;;;14.50;10.23;;;16.10;99.90;;;;;;5091993;28;20442;-65
2022/05/13 03:49:05;;;;;;;12.13;9.00;;;16.10;99.90;;;;;;5091763;28;21140;-64
2022/05/13 03:51:32;;;;;;;11.73;8.53;;;16.10;99.90;;;;;;5091631;28;20817;-65
2022/05/13 03:54:00;;;;;;;10.90;8.70;;;16.10;99.90;;;;;;5091893;28;20450;-64
2022/05/13 03:56:27;;;;;;;13.00;9.23;;;16.10;99.90;;;;;;5091877;28;20521;-64
2022/05/13 03:58:53;;;;;;;13.70;9.30;;;16.10;99.90;;;;;;5091579;28;20470;-65
2022/05/13 04:01:20;;;;;;;10.63;8.93;;;16.00;99.90;;;;;;5091647;28;20453;-64
2022/05/13 04:03:48;;;;;;;12.17;8.97;;;16.10;99.90;;;;;;5091762;28;20912;-64
2022/05/13 04:09:01;;;;;;;11.87;9.17;;;16.00;99.90;;;;;;5091434;28;20957;-65
2022/05/13 04:11:31;;;;;;;14.20;10.03;;;16.00;99.90;;;;;;5091131;28;20454;-65
2022/05/13 04:16:43;;;;;;;11.40;10.20;;;15.90;99.90;;;;;;5091564;28;20414;-65
2022/05/13 04:19:11;;;;;;;15.37;9.97;;;15.90;99.90;;;;;;5091168;28;20473;-65
2022/05/13 04:21:39;;;;;;;14.87;12.07;;;15.90;99.90;;;;;;5090857;28;20457;-65
2022/05/13 04:24:11;;;;;;;11.80;10.60;;;15.90;99.90;;;;;;5091045;28;20442;-65
2022/05/13 04:26:38;;;;;;;11.70;10.10;;;16.00;99.90;;;;;;5091265;28;20450;-65
2022/05/13 04:29:06;;;;;;;11.47;10.30;;;16.00;99.90;;;;;;5091154;28;21000;-65
2022/05/13 04:31:35;;;;;;;11.17;10.00;;;16.00;99.90;;;;;;5090789;28;20474;-64
2022/05/13 04:34:02;;;;;;;15.00;10.80;;;16.00;99.90;;;;;;5090948;28;20474;-65
2022/05/13 04:36:29;;;;;;;10.30;9.30;;;16.00;99.90;;;;;;5090698;28;20446;-64
2022/05/13 04:38:57;;;;;;;10.60;9.50;;;16.10;99.90;;;;;;5090975;28;20458;-64
2022/05/13 04:44:14;;;;;;;10.73;9.63;;;16.10;99.90;;;;;;5090670;28;20472;-63
2022/05/13 04:46:41;;;;;;;12.20;9.90;;;16.20;99.90;;;;;;5097281;28;20453;-63
2022/05/13 04:49:08;;;;;;;10.30;9.30;;;16.20;99.90;;;;;;5094482;28;20468;-63
2022/05/13 04:51:36;;;;;;;11.33;10.23;;;16.30;99.90;;;;;;5088419;28;20526;-63
2022/05/13 04:54:03;;;;;;;10.80;9.80;;;16.30;99.90;;;;;;5076211;28;20929;-63
2022/05/13 04:56:31;;;;;;;14.97;10.50;;;16.30;99.90;;;;;;5079280;28;20450;-64
2022/05/13 04:58:59;;;;;;;13.80;11.00;;;16.30;99.90;;;;;;5075661;28;20872;-64
2022/05/13 05:01:26;;;;;;;10.43;9.27;;;16.40;99.90;;;;;;5085644;28;20457;-64
2022/05/13 05:03:54;;;;;;;11.43;10.30;;;16.40;99.90;;;;;;5082210;28;20446;-64
2022/05/13 05:06:22;;;;;;;12.87;9.70;;;16.40;99.90;;;;;;5080333;28;20447;-64
2022/05/13 05:08:49;;;;;;;10.67;9.57;;;16.50;99.90;;;;;;5084883;28;20457;-63
2022/05/13 05:11:17;;;;;;;12.03;10.80;;;16.50;99.90;;;;;;5094655;28;20468;-64
2022/05/13 05:13:48;;;;;;;12.90;10.10;;;16.60;99.90;;;;;;5091176;28;20442;-64
2022/05/13 05:16:16;;;;;;;14.20;10.10;;;16.60;99.90;;;;;;5097078;28;20820;-64
2022/05/13 05:18:43;;;;;;;11.83;10.73;;;16.60;99.90;;;;;;5098296;28;20488;-64
2022/05/13 05:21:11;;;;;;;10.33;9.30;;;16.60;99.90;;;;;;5104841;28;20927;-65
2022/05/13 05:23:40;;;;;;;10.70;9.57;;;16.80;99.90;;;;;;5089342;28;20446;-64
2022/05/13 05:26:07;;;;;;;11.87;9.90;;;16.70;99.90;;;;;;5095682;28;20824;-64
2022/05/13 05:28:37;;;;;;;12.43;10.27;;;16.80;99.90;;;;;;5080646;28;20543;-64
2022/05/13 05:31:06;;;;;;;11.27;9.83;;;16.90;99.90;;;;;;5082454;28;20455;-64
2022/05/13 05:33:32;;;;;;;12.97;9.70;;;17.10;99.90;;;;;;5088865;28;20449;-65
2022/05/13 05:35:59;;;;;;;11.70;10.60;;;17.20;99.90;;;;;;5087329;28;20464;-65
2022/05/13 05:38:26;;;;;;;11.80;10.53;;;17.40;99.90;;;;;;5089774;28;20478;-64
2022/05/13 05:40:55;;;;;;;10.67;9.63;;;17.50;99.90;;;;;;5089514;28;20528;-66
2022/05/13 05:43:22;;;;;;;11.40;9.90;;;17.70;99.90;;;;;;5090027;28;20442;-65
2022/05/13 05:45:49;;;;;;;13.17;8.73;;;17.80;99.90;;;;;;5089619;28;20508;-65
2022/05/13 05:48:22;;;;;;;12.90;10.20;;;17.90;99.90;;;;;;5089734;28;20543;-64
2022/05/13 05:50:50;;;;;;;10.33;8.47;;;17.90;99.90;;;;;;5089521;28;20454;-66
2022/05/13 05:57:13;;;;;;;10.43;9.33;;;18.00;99.90;;;;;;5089813;28;20862;-66
2022/05/13 05:58:51;;;;;;;9.53;8.63;;;17.80;99.90;;;;;;5089551;28;20500;-64
2022/05/13 06:01:18;;;;;;;10.60;9.50;;;17.80;99.90;;;;;;5089380;28;20438;-67
2022/05/13 06:03:46;;;;;;;9.57;8.57;;;17.80;99.90;;;;;;5089681;28;20450;-67
2022/05/13 06:06:13;;;;;;;10.07;8.50;;;17.80;99.90;;;;;;5089518;28;20446;-66
2022/05/13 06:08:40;;;;;;;10.57;9.47;;;17.90;99.90;;;;;;5089519;28;20466;-65
2022/05/13 06:11:07;;;;;;;9.47;8.00;;;18.00;99.90;;;;;;5089268;28;20442;-66
2022/05/13 06:13:34;;;;;;;9.07;8.23;;;18.10;99.90;;;;;;5083460;28;20458;-65
2022/05/13 06:16:01;;;;;;;10.93;8.40;;;18.10;99.90;;;;;;5088814;28;20533;-64
2022/05/13 06:18:28;;;;;;;11.33;9.93;;;18.10;99.90;;;;;;5087937;28;20486;-63
2022/05/13 06:20:56;;;;;;;8.23;7.50;;;18.10;99.90;;;;;;5088372;28;20443;-65
2022/05/13 06:23:23;;;;;;;9.20;7.27;;;18.10;99.90;;;;;;5088765;28;20456;-64
2022/05/13 06:25:50;;;;;;;8.03;6.97;;;18.00;99.90;;;;;;5088493;28;20479;-64
2022/05/13 06:28:16;;;;;;;10.43;7.50;;;18.10;99.90;;;;;;5088388;28;20458;-64
2022/05/13 06:30:43;;;;;;;11.27;8.00;;;18.10;99.90;;;;;;5080733;28;20446;-65
2022/05/13 06:33:10;;;;;;;9.50;8.60;;;18.30;99.90;;;;;;5084126;28;20452;-65
2022/05/13 06:35:38;;;;;;;11.00;8.70;;;18.40;99.90;;;;;;5088746;28;20438;-65
2022/05/13 06:38:08;;;;;;;7.73;6.93;;;18.40;99.90;;;;;;5088685;28;20999;-66
2022/05/13 06:40:34;;;;;;;8.83;6.90;;;18.40;99.90;;;;;;5088290;28;20450;-65
2022/05/13 06:43:01;;;;;;;8.20;7.40;;;18.50;99.90;;;;;;5088721;28;20533;-64
2022/05/13 06:45:28;;;;;;;7.90;6.93;;;18.60;99.90;;;;;;5088507;28;20472;-65
2022/05/13 06:47:55;;;;;;;9.63;7.10;;;18.70;99.90;;;;;;5088755;28;20462;-64
2022/05/13 06:50:22;;;;;;;8.60;5.63;;;18.80;99.90;;;;;;5088261;28;20446;-65
2022/05/13 06:52:48;;;;;;;8.80;6.13;;;18.70;99.90;;;;;;5088645;28;20457;-64
2022/05/13 06:55:18;;;;;;;7.43;6.40;;;18.60;99.90;;;;;;5088620;28;20457;-64
2022/05/13 06:57:45;;;;;;;7.73;6.73;;;18.60;99.90;;;;;;5088413;28;20512;-64
2022/05/13 07:00:13;;;;;;;9.03;5.83;;;18.60;99.90;;;;;;5087692;28;20456;-64
2022/05/13 07:02:41;;;;;;;9.37;6.30;;;18.50;99.90;;;;;;5088631;28;20442;-64
2022/05/13 07:05:09;;;;;;;7.73;6.00;;;18.40;99.90;;;;;;5088245;28;20450;-64
2022/05/13 07:07:36;;;;;;;7.07;5.97;;;18.40;99.90;;;;;;5089419;28;20504;-64
2022/05/13 07:10:04;;;;;;;9.23;6.60;;;18.30;99.90;;;;;;5091592;28;20502;-64
2022/05/13 07:12:32;;;;;;;7.77;6.50;;;18.50;99.90;;;;;;5091824;28;20469;-64
2022/05/13 07:14:59;;;;;;;9.43;5.70;;;18.70;99.90;;;;;;5091835;28;20453;-64
2022/05/13 07:17:26;;;;;;;8.13;6.03;;;18.90;99.90;;;;;;5091798;28;20460;-64
2022/05/13 07:19:53;;;;;;;6.73;4.97;;;19.00;99.90;;;;;;5092431;28;20452;-64
2022/05/13 07:22:20;;;;;;;6.67;5.00;;;19.10;99.90;;;;;;5092408;28;20971;-65
2022/05/13 07:24:47;;;;;;;7.67;5.53;;;19.00;99.90;;;;;;5092617;28;20469;-64
2022/05/13 07:27:14;;;;;;;8.57;4.90;;;19.10;99.90;;;;;;5092887;28;20444;-65
2022/05/13 07:29:43;;;;;;;7.83;5.10;;;19.10;99.90;;;;;;5092871;28;20955;-65
2022/05/13 07:32:10;;;;;;;7.27;4.70;;;19.00;99.90;;;;;;5092568;28;20461;-64
2022/05/13 07:34:37;;;;;;;9.23;5.40;;;18.90;99.90;;;;;;5092727;28;20818;-64
2022/05/13 07:37:04;;;;;;;7.43;5.33;;;18.80;99.90;;;;;;5092496;28;20454;-65
2022/05/13 07:42:15;;;;;;;10.63;4.40;;;18.60;99.90;;;;;;5092514;28;20925;-64
2022/05/13 07:44:43;;;;;;;6.50;5.73;;;18.40;99.90;;;;;;5092677;28;20449;-65
2022/05/13 07:47:11;;;;;;;7.03;4.97;;;18.30;99.90;;;;;;5092478;28;20456;-64
2022/05/13 07:49:39;;;;;;;8.43;5.10;;;18.30;99.90;;;;;;5092238;28;20476;-64
2022/05/13 07:52:06;;;;;;;9.00;5.10;;;18.30;99.90;;;;;;5092093;28;20533;-64
2022/05/13 07:54:33;;;;;;;8.13;4.43;;;18.40;99.90;;;;;;5091961;28;20994;-64
2022/05/13 07:57:00;;;;;;;7.57;4.60;;;18.50;99.90;;;;;;5092133;28;20442;-64
2022/05/13 07:59:27;;;;;;;5.30;4.47;;;18.60;99.90;;;;;;5091741;28;20496;-64
2022/05/13 08:01:55;;;;;;;6.60;4.20;;;18.70;99.90;;;;;;5091105;28;20455;-65
2022/05/13 08:04:22;;;;;;;7.13;4.43;;;18.70;99.90;;;;;;5091756;28;20200;-65
2022/05/13 08:06:50;;;;;;;8.33;4.33;;;18.90;99.90;;;;;;5091539;28;20454;-65
2022/05/13 08:09:17;;;;;;;9.90;3.80;;;19.00;99.90;;;;;;5082024;28;20485;-65
2022/05/13 08:11:44;;;;;;;8.53;4.83;;;19.00;99.90;;;;;;5089121;28;20453;-65
2022/05/13 08:14:12;;;;;;;8.40;4.33;;;18.90;99.90;;;;;;5083122;28;20443;-65
2022/05/13 08:16:39;;;;;;;7.57;4.37;;;19.00;99.90;;;;;;5086378;28;20799;-65
2022/05/13 08:19:07;;;;;;;5.90;3.97;;;19.20;99.90;;;;;;5074270;28;20478;-65
2022/05/13 08:21:34;;;;;;;8.17;4.40;;;19.60;99.90;;;;;;5082963;28;20447;-65
2022/05/13 08:24:01;;;;;;;8.00;4.37;;;20.00;99.90;;;;;;5082383;28;21000;-65
2022/05/13 08:26:28;;;;;;;6.20;4.30;;;20.00;99.90;;;;;;5075762;28;20450;-65
2022/05/13 08:28:55;;;;;;;8.40;4.80;;;20.00;99.90;;;;;;5087019;28;20463;-65
2022/05/13 08:31:21;;;;;;;6.73;4.10;;;20.00;99.90;;;;;;5076696;28;20524;-65
2022/05/13 08:33:48;;;;;;;7.60;3.80;;;20.00;99.90;;;;;;5080897;28;20452;-66
2022/05/13 08:36:17;;;;;;;15.93;4.40;;;19.90;99.90;;;;;;5084226;28;21007;-65
2022/05/13 08:38:45;;;;;;;5.00;3.77;;;19.80;99.90;;;;;;5073788;28;21070;-65
2022/05/13 08:41:20;;;;;;;6.13;3.60;;;19.70;99.90;;;;;;5085739;28;20444;-65
2022/05/13 08:43:51;;;;;;;6.37;3.50;;;19.90;99.90;;;;;;5080406;28;20533;-65
2022/05/13 08:46:28;;;;;;;7.50;3.87;;;20.00;99.90;;;;;;5076891;28;20530;-65
2022/05/13 08:49:00;;;;;;;8.40;3.57;;;20.30;99.90;;;;;;5087028;28;20999;-65
2022/05/13 08:51:40;;;;;;;7.93;4.10;;;21.00;99.90;;;;;;5077177;28;20441;-65
2022/05/13 08:54:14;;;;;;;4.67;3.00;;;21.10;99.90;;;;;;5078303;28;20446;-64
2022/05/13 08:56:45;;;;;;;7.00;3.47;;;20.80;99.90;;;;;;5086839;28;20859;-64
2022/05/13 08:59:18;;;;;;;7.10;3.03;;;20.40;99.90;;;;;;5083694;28;20485;-65
2022/05/13 09:01:49;;;;;;;9.90;3.93;;;20.30;99.90;;;;;;5092267;28;20529;-64
2022/05/13 09:04:27;;;;;;;6.33;4.17;;;20.10;99.90;;;;;;5090033;28;20435;-64
2022/05/13 09:06:58;;;;;;;6.20;3.70;;;19.90;99.90;;;;;;5078563;28;20537;-65
2022/05/13 09:09:26;;;;;;;7.87;3.90;;;19.70;99.90;;;;;;5076533;28;20657;-65
2022/05/13 09:11:58;;;;;;;6.00;3.77;;;19.80;99.90;;;;;;5087379;28;20541;-65
2022/05/13 09:14:36;;;;;;;7.33;4.03;;;20.00;99.90;;;;;;5089151;28;20452;-65
2022/05/13 09:17:20;;;;;;;6.73;3.30;;;20.30;99.90;;;;;;5079471;28;20442;-65
2022/05/13 09:19:55;;;;;;;4.53;3.60;;;20.50;99.90;;;;;;5084382;28;20493;-64
2022/05/13 09:22:24;;;;;;;7.43;4.30;;;20.40;99.90;;;;;;5072594;28;20979;-64
2022/05/13 09:24:51;;;;;;;7.93;3.80;;;20.40;99.90;;;;;;5081233;28;20454;-65
2022/05/13 09:27:17;;;;;;;11.07;4.40;;;20.50;99.90;;;;;;5080456;28;20441;-65
2022/05/13 09:29:46;;;;;;;8.80;4.43;;;20.50;99.90;;;;;;5072968;28;20463;-65
2022/05/13 09:32:16;;;;;;;9.93;3.40;;;20.40;99.90;;;;;;5084919;28;20809;-65
2022/05/13 09:34:50;;;;;;;10.73;3.80;;;20.40;99.90;;;;;;5075777;28;20448;-64
2022/05/13 09:37:21;;;;;;;7.87;3.30;;;20.10;99.90;;;;;;5077543;28;20471;-64
2022/05/13 09:40:06;;;;;;;5.97;3.20;;;20.00;99.90;;;;;;5084396;28;20488;-65
2022/05/13 09:42:37;;;;;;;7.57;3.20;;;20.00;99.90;;;;;;5073944;28;20446;-65
2022/05/13 09:45:18;;;;;;;7.97;3.10;;;20.00;99.90;;;;;;5078980;28;20486;-66
2022/05/13 09:47:47;;;;;;;9.37;3.67;;;20.00;99.90;;;;;;5084228;28;21088;-64
2022/05/13 09:50:25;;;;;;;5.53;2.93;;;19.90;99.90;;;;;;5087644;28;20820;-65
2022/05/13 09:52:52;;;;;;;5.03;3.33;;;20.00;99.90;;;;;;5090637;28;20442;-65
2022/05/13 09:55:26;;;;;;;6.33;3.03;;;20.00;99.90;;;;;;5085043;28;20494;-66
2022/05/13 09:57:55;;;;;;;7.30;3.57;;;19.90;99.90;;;;;;5085233;28;21116;-65
2022/05/13 10:00:27;;;;;;;4.90;3.47;;;19.80;99.90;;;;;;5072160;28;21064;-65
2022/05/13 10:03:09;;;;;;;10.40;3.43;;;19.80;99.90;;;;;;5080081;28;20452;-65
2022/05/13 10:05:36;;;;;;;5.97;2.83;;;20.00;99.90;;;;;;5082407;28;20442;-65
2022/05/13 10:08:06;;;;;;;13.30;4.50;;;20.60;99.90;;;;;;5071668;28;20986;-66
2022/05/13 10:16:10;;;;;;;7.93;3.40;;;22.20;99.90;;;;;;5071631;28;20442;-66
2022/05/13 10:18:42;;;;;;;6.33;3.60;;;21.60;99.90;;;;;;5082276;28;20486;-65
2022/05/13 10:21:16;;;;;;;6.30;4.30;;;21.20;99.90;;;;;;5075586;28;20447;-65
2022/05/13 10:23:50;;;;;;;6.80;4.70;;;21.10;99.90;;;;;;5085492;28;20443;-66
2022/05/13 10:26:21;;;;;;;6.40;4.20;;;21.10;99.90;;;;;;5085855;28;20443;-65
2022/05/13 10:28:55;;;;;;;7.37;4.30;;;21.20;99.90;;;;;;5069623;28;20494;-65
2022/05/13 10:31:25;;;;;;;7.53;4.10;;;21.40;99.90;;;;;;5081332;28;20442;-66
2022/05/13 10:34:01;;;;;;;9.83;4.70;;;21.40;99.90;;;;;;5078910;28;20811;-65
2022/05/13 10:36:37;;;;;;;7.80;4.33;;;21.50;99.90;;;;;;5093237;28;21023;-65
2022/05/13 10:39:11;;;;;;;9.17;4.70;;;21.40;99.90;;;;;;5087061;28;20473;-66
2022/05/13 10:41:45;;;;;;;5.50;3.90;;;21.50;99.90;;;;;;5081150;28;20819;-66
2022/05/13 10:44:19;;;;;;;7.43;4.00;;;21.70;99.90;;;;;;5082619;28;20435;-65
2022/05/13 10:46:51;;;;;;;7.37;3.90;;;22.00;99.90;;;;;;5083805;28;20551;-66
2022/05/13 10:49:18;;;;;;;6.60;4.47;;;21.70;99.90;;;;;;5078141;28;20466;-62
2022/05/13 10:51:53;;;;;;;8.30;4.63;;;21.50;99.90;;;;;;5086640;28;20438;-65
2022/05/13 10:54:32;;;;;;;8.23;4.37;;;21.40;99.90;;;;;;5078672;28;20441;-65
2022/05/13 10:57:12;;;;;;;5.50;4.27;;;21.10;99.90;;;;;;5082168;28;20824;-63
2022/05/13 10:59:46;;;;;;;7.13;4.27;;;20.80;99.90;;;;;;5075527;28;20575;-65
2022/05/13 11:02:40;;;;;;;6.73;4.73;;;20.90;99.90;;;;;;5083241;28;20446;-64
2022/05/13 11:05:13;;;;;;;8.37;4.63;;;21.30;99.90;;;;;;5085153;28;20438;-64
2022/05/13 11:07:48;;;;;;;7.47;4.80;;;21.40;99.90;;;;;;5079485;28;20500;-64
2022/05/13 11:10:23;;;;;;;7.37;5.00;;;21.50;99.90;;;;;;5084214;28;20475;-63
2022/05/13 11:13:00;;;;;;;5.83;4.83;;;21.50;99.90;;;;;;5072442;28;20953;-65
2022/05/13 11:15:35;;;;;;;7.07;4.30;;;21.70;99.90;;;;;;5080419;28;20484;-64
2022/05/13 11:18:12;;;;;;;9.47;4.90;;;21.90;99.90;;;;;;5077972;28;20462;-64
2022/05/13 11:20:45;;;;;;;8.07;4.83;;;22.00;99.90;;;;;;5092453;28;20481;-65
2022/05/13 11:23:23;;;;;;;5.87;4.40;;;21.80;99.90;;;;;;5073068;28;20439;-65
2022/05/13 11:26:12;;;;;;;8.90;4.67;;;21.80;99.90;;;;;;5077654;28;20442;-65
2022/05/13 11:28:56;;;;;;;8.37;4.37;;;22.20;99.90;;;;;;5092407;28;20981;-66
2022/05/13 11:31:41;;;;;;;8.37;4.67;;;22.40;99.90;;;;;;5082698;28;20794;-64
2022/05/13 11:34:23;;;;;;;7.40;4.10;;;22.80;99.90;;;;;;5092385;28;20441;-66
2022/05/13 11:36:57;;;;;;;9.97;4.90;;;23.10;99.90;;;;;;5091992;28;20465;-66
2022/05/13 11:39:44;;;;;;;8.17;4.37;;;23.10;99.90;;;;;;5084621;28;20489;-65
2022/05/13 11:42:30;;;;;;;7.20;4.20;;;22.80;99.90;;;;;;5087583;28;20818;-66
2022/05/13 11:45:23;;;;;;;7.50;4.43;;;22.80;99.90;;;;;;5101148;28;20426;-66
2022/05/13 11:47:57;;;;;;;5.07;4.13;;;22.50;99.90;;;;;;5091970;28;20545;-65
2022/05/13 11:50:25;;;;;;;6.10;4.40;;;22.00;99.90;;;;;;5092012;28;20445;-65
2022/05/13 11:52:53;;;;;;;6.80;4.30;;;21.80;99.90;;;;;;5086078;28;20503;-64
2022/05/13 11:55:42;;;;;;;6.57;4.37;;;21.70;99.90;;;;;;5089656;28;20441;-65
2022/05/13 11:58:48;;;;;;;6.67;4.33;;;21.50;99.90;;;;;;5087995;28;20834;-65
2022/05/13 12:01:35;;;;;;;5.40;3.80;;;21.30;99.90;;;;;;5090760;28;20477;-64
2022/05/13 12:04:32;;;;;;;7.57;4.20;;;21.80;99.90;;;;;;5091546;28;21017;-65
2022/05/13 12:07:02;;;;;;;6.20;4.43;;;22.90;99.90;;;;;;5085647;28;20813;-66
2022/05/13 12:09:33;;;;;;;5.83;4.13;;;24.00;99.90;;;;;;5077964;28;20459;-67
2022/05/13 12:12:09;;;;;;;7.97;4.63;;;24.80;99.90;;;;;;5078060;28;20457;-66
2022/05/13 12:14:48;;;;;;;5.93;3.60;;;25.00;99.90;;;;;;5088767;28;20437;-65
2022/05/13 12:17:21;;;;;;;8.03;3.53;;;25.30;99.00;;;;;;5087708;28;20445;-66
2022/05/13 12:19:56;;;;;;;5.20;4.13;;;25.10;98.30;;;;;;5093485;28;20569;-65
2022/05/13 12:22:48;;;;;;;7.63;3.63;;;24.50;99.60;;;;;;5102034;28;20524;-66
2022/05/13 12:25:45;;;;;;;7.00;4.07;;;24.20;99.80;;;;;;5094653;28;20452;-66
2022/05/13 12:28:22;;;;;;;6.80;4.10;;;23.70;99.90;;;;;;5092895;28;20496;-66
2022/05/13 12:30:50;;;;;;;7.73;3.90;;;23.50;99.90;;;;;;5090787;28;20441;-67
2022/05/13 12:33:37;;;;;;;6.60;3.30;;;24.00;99.90;;;;;;5091257;28;20446;-67
2022/05/13 12:39:06;;;;;;;7.60;4.60;;;24.90;97.00;;;;;;5086969;28;20625;-67
2022/05/13 12:41:47;;;;;;;6.33;3.40;;;24.70;97.50;;;;;;5094745;28;20469;-64
2022/05/13 12:44:22;;;;;;;5.17;3.63;;;24.60;96.10;;;;;;5080509;28;20500;-66
2022/05/13 12:46:51;;;;;;;7.70;4.07;;;25.00;96.50;;;;;;5080059;28;20445;-67
2022/05/13 12:49:21;;;;;;;4.73;3.47;;;25.20;96.60;;;;;;5079946;28;20550;-67
2022/05/13 12:52:03;;;;;;;6.80;3.00;;;25.30;97.40;;;;;;5069806;28;20464;-66
2022/05/13 12:54:35;;;;;;;7.50;2.90;;;25.30;96.20;;;;;;5070508;28;20489;-64
2022/05/13 12:57:11;;;;;;;4.67;3.00;;;24.40;95.20;;;;;;5070445;28;20445;-66
2022/05/13 12:59:41;;;;;;;6.83;3.90;;;24.20;96.80;;;;;;5070168;28;20478;-66
2022/05/13 13:02:09;;;;;;;6.47;3.13;;;24.90;96.20;;;;;;5079746;28;20450;-67
2022/05/13 13:04:45;;;;;;;4.17;2.70;;;25.80;96.60;;;;;;5076874;28;20445;-66
2022/05/13 13:07:20;;;;;;;7.33;3.90;;;26.50;93.90;;;;;;5079192;28;20468;-67
2022/05/13 13:09:50;;;;;;;6.03;3.17;;;26.70;92.60;;;;;;5079965;28;20467;-65
2022/05/13 13:12:25;;;;;;;4.83;3.37;;;27.10;91.80;;;;;;5092594;28;20446;-67
2022/05/13 13:14:58;;;;;;;5.50;3.20;;;27.90;92.80;;;;;;5084450;28;21018;-66
2022/05/13 13:17:31;;;;;;;5.90;2.80;;;28.20;89.80;;;;;;5079932;28;20447;-66
2022/05/13 13:20:00;;;;;;;3.90;2.57;;;28.10;88.20;;;;;;5082914;28;20978;-65
2022/05/13 13:22:34;;;;;;;5.00;2.83;;;28.50;90.40;;;;;;5079284;28;20546;-65